Time;durP1;ratioP1;P1;durP2;ratioP2;P2;SDS_P1;SDS_P2;PMS_P1;PMS_P2;Temp;Humidity;BMP_temperature;BMP_pressure;BME280_temperature;BME280_humidity;BME280_pressure;Samples;Min_cycle;Max_cycle;Signal;HPM_P1;HPM_P2
2022/11/09 00:00:45;;;;;;;8.40;5.55;;;7.10;97.10;;;;;;5034667;28;20211;-87
2022/11/09 00:03:13;;;;;;;9.32;6.93;;;7.10;96.40;;;;;;5038161;28;20800;-88
2022/11/09 00:05:40;;;;;;;6.67;4.73;;;7.10;96.10;;;;;;5041127;28;20312;-87
2022/11/09 00:08:11;;;;;;;9.03;6.13;;;7.20;95.90;;;;;;5078836;28;20269;-87
2022/11/09 00:10:38;;;;;;;9.10;7.45;;;7.30;95.60;;;;;;5081770;28;20216;-87
2022/11/09 00:13:06;;;;;;;10.33;7.43;;;7.20;95.50;;;;;;5083994;28;20223;-88
2022/11/09 00:15:35;;;;;;;9.15;6.93;;;7.30;95.80;;;;;;5080918;28;20236;-88
2022/11/09 00:18:02;;;;;;;10.90;7.60;;;7.30;95.60;;;;;;5080460;28;20224;-87
2022/11/09 00:20:29;;;;;;;8.60;6.47;;;7.30;95.60;;;;;;5081696;28;20572;-87
2022/11/09 00:22:57;;;;;;;6.00;4.70;;;7.20;95.50;;;;;;5082899;28;20213;-87
2022/11/09 00:25:26;;;;;;;5.68;4.45;;;7.00;95.50;;;;;;5081406;28;20208;-87
2022/11/09 00:27:53;;;;;;;3.60;2.80;;;6.80;95.70;;;;;;5083142;28;20295;-88
2022/11/09 00:30:20;;;;;;;7.10;5.30;;;6.70;95.90;;;;;;5082992;28;20204;-87
2022/11/09 00:32:47;;;;;;;5.93;4.40;;;6.60;96.90;;;;;;5080872;28;20227;-87
2022/11/09 00:35:14;;;;;;;7.60;5.80;;;6.70;96.10;;;;;;5079998;28;20650;-87
2022/11/09 00:37:41;;;;;;;5.40;4.50;;;6.70;96.50;;;;;;5084414;28;20650;-88
2022/11/09 00:40:10;;;;;;;7.57;5.70;;;6.80;96.30;;;;;;5084070;28;20243;-87
2022/11/09 00:42:38;;;;;;;6.90;4.80;;;7.00;96.20;;;;;;5082649;28;20211;-88
2022/11/09 00:45:05;;;;;;;3.27;2.50;;;7.00;95.50;;;;;;5083424;28;20200;-87
2022/11/09 00:47:32;;;;;;;2.40;2.20;;;6.90;95.50;;;;;;5082851;28;20197;-88
2022/11/09 00:50:07;;;;;;;7.83;5.80;;;6.70;95.40;;;;;;5079644;28;20200;-87
2022/11/09 00:52:34;;;;;;;8.10;4.87;;;6.60;96.00;;;;;;5081059;28;20318;-87
2022/11/09 00:55:01;;;;;;;7.33;5.10;;;6.70;96.20;;;;;;5080875;28;20229;-87
2022/11/09 00:57:28;;;;;;;3.53;2.83;;;6.80;96.30;;;;;;5084064;28;20204;-87
2022/11/09 00:59:56;;;;;;;5.03;3.83;;;6.80;95.70;;;;;;5081924;28;20291;-88
2022/11/09 01:02:25;;;;;;;6.57;3.87;;;6.70;95.60;;;;;;5082540;28;20213;-87
2022/11/09 01:04:51;;;;;;;4.97;2.40;;;6.80;95.70;;;;;;5086017;28;20295;-87
2022/11/09 01:07:18;;;;;;;5.63;3.27;;;6.70;95.40;;;;;;5077116;28;20205;-87
2022/11/09 01:09:45;;;;;;;5.93;4.20;;;6.70;95.40;;;;;;5087745;28;20301;-87
2022/11/09 01:12:12;;;;;;;5.70;4.00;;;6.70;95.40;;;;;;5086038;28;20220;-87
2022/11/09 01:14:39;;;;;;;2.72;1.85;;;6.80;95.40;;;;;;5087187;28;20207;-87
2022/11/09 01:17:07;;;;;;;2.22;1.77;;;6.90;94.60;;;;;;5087145;28;20212;-88
2022/11/09 01:19:34;;;;;;;4.88;3.65;;;6.60;94.70;;;;;;5086480;28;20207;-87
2022/11/09 01:22:07;;;;;;;3.40;2.57;;;6.60;95.40;;;;;;5087578;28;20212;-87
2022/11/09 01:24:33;;;;;;;3.88;3.20;;;6.60;95.40;;;;;;5087413;28;20199;-88
2022/11/09 01:27:00;;;;;;;2.80;2.35;;;6.60;95.40;;;;;;5084214;28;20209;-87
2022/11/09 01:29:27;;;;;;;2.97;2.67;;;6.50;95.10;;;;;;5083077;28;20200;-88
2022/11/09 01:31:56;;;;;;;4.75;3.80;;;6.50;95.40;;;;;;5085183;28;20224;-87
2022/11/09 01:34:27;;;;;;;2.73;2.30;;;6.60;96.00;;;;;;5086641;28;20635;-87
2022/11/09 01:36:54;;;;;;;2.43;1.90;;;6.60;95.40;;;;;;5086533;28;20675;-87
2022/11/09 01:39:21;;;;;;;3.20;2.60;;;6.50;95.10;;;;;;5082348;28;20198;-87
2022/11/09 01:41:48;;;;;;;5.97;3.77;;;6.50;95.40;;;;;;5080982;28;20208;-88
2022/11/09 01:44:17;;;;;;;4.03;2.60;;;6.50;95.40;;;;;;5081865;28;20197;-87
2022/11/09 01:46:49;;;;;;;5.20;3.25;;;6.60;95.40;;;;;;5080511;28;20200;-88
2022/11/09 01:49:22;;;;;;;3.93;3.13;;;6.60;95.40;;;;;;5082558;28;20301;-88
2022/11/09 01:51:53;;;;;;;2.80;2.37;;;6.70;95.40;;;;;;5081526;28;20220;-87
2022/11/09 01:54:24;;;;;;;4.10;2.43;;;6.70;95.00;;;;;;5085189;28;20216;-87
2022/11/09 01:56:56;;;;;;;3.77;1.83;;;6.70;94.70;;;;;;5088908;28;20306;-87
2022/11/09 01:59:28;;;;;;;5.37;3.00;;;6.60;94.00;;;;;;5081619;28;20208;-88
2022/11/09 02:01:56;;;;;;;3.30;2.30;;;6.50;94.90;;;;;;5081256;28;20201;-87
2022/11/09 02:04:27;;;;;;;2.50;2.30;;;6.50;95.00;;;;;;5082544;28;20292;-87
2022/11/09 02:06:57;;;;;;;2.60;1.87;;;6.50;94.80;;;;;;5081121;28;20204;-87
2022/11/09 02:09:30;;;;;;;2.97;1.97;;;6.50;94.30;;;;;;5080920;28;20241;-87
2022/11/09 02:11:57;;;;;;;2.17;1.93;;;6.30;94.20;;;;;;5081866;28;20223;-87
2022/11/09 02:14:27;;;;;;;2.90;1.80;;;6.20;94.90;;;;;;5081530;28;20229;-87
2022/11/09 02:16:54;;;;;;;3.30;2.77;;;6.10;94.80;;;;;;5088403;28;20196;-87
2022/11/09 02:19:25;;;;;;;3.50;2.43;;;6.20;95.30;;;;;;5088829;28;20295;-87
2022/11/09 02:21:53;;;;;;;3.50;1.97;;;6.30;95.40;;;;;;5089223;28;20212;-87
2022/11/09 02:24:21;;;;;;;2.27;1.60;;;6.30;94.40;;;;;;5085157;28;20211;-87
2022/11/09 02:26:49;;;;;;;5.03;2.60;;;6.30;94.50;;;;;;5079877;28;20211;-87
2022/11/09 02:29:19;;;;;;;3.03;2.30;;;6.30;95.30;;;;;;5090808;28;20287;-87
2022/11/09 02:31:52;;;;;;;3.30;2.13;;;6.30;94.90;;;;;;5087537;28;20233;-87
2022/11/09 02:34:21;;;;;;;3.03;2.70;;;6.30;94.60;;;;;;5080272;28;20571;-87
2022/11/09 02:36:48;;;;;;;2.97;2.17;;;6.30;95.10;;;;;;5079696;28;20203;-87
2022/11/09 02:39:18;;;;;;;3.00;1.97;;;6.50;95.00;;;;;;5086632;28;20201;-87
2022/11/09 02:41:55;;;;;;;1.63;1.40;;;6.30;94.10;;;;;;5078354;28;20205;-88
2022/11/09 02:44:25;;;;;;;1.80;1.60;;;6.10;94.10;;;;;;5076934;28;20201;-87
2022/11/09 02:46:55;;;;;;;2.43;2.17;;;5.80;94.90;;;;;;5086384;28;20564;-87
2022/11/09 02:49:22;;;;;;;3.03;2.30;;;6.10;95.30;;;;;;5090033;28;20202;-87
2022/11/09 02:51:49;;;;;;;2.40;2.10;;;6.20;95.30;;;;;;5090444;28;20224;-87
2022/11/09 02:54:17;;;;;;;3.27;2.27;;;6.30;95.10;;;;;;5085979;28;20224;-87
2022/11/09 02:56:44;;;;;;;2.47;2.00;;;6.20;95.20;;;;;;5087012;28;20251;-87
2022/11/09 02:59:11;;;;;;;2.97;2.30;;;6.30;94.80;;;;;;5086172;28;20197;-87
2022/11/09 03:01:37;;;;;;;2.80;2.10;;;6.30;94.80;;;;;;5089260;28;20200;-88
2022/11/09 03:04:04;;;;;;;4.27;2.27;;;6.40;95.10;;;;;;5089773;28;20211;-87
2022/11/09 03:06:37;;;;;;;1.80;1.60;;;6.30;94.50;;;;;;5091533;28;20203;-87
2022/11/09 03:09:05;;;;;;;2.87;2.30;;;6.30;94.20;;;;;;5084058;28;20243;-87
2022/11/09 03:11:34;;;;;;;2.43;1.93;;;6.20;94.80;;;;;;5089257;28;20232;-88
2022/11/09 03:14:01;;;;;;;2.20;2.00;;;6.20;94.50;;;;;;5084312;28;20579;-87
2022/11/09 03:16:28;;;;;;;2.33;2.07;;;6.30;94.70;;;;;;5084102;28;20197;-87
2022/11/09 03:18:56;;;;;;;2.03;1.60;;;6.30;94.30;;;;;;5077261;28;20208;-88
2022/11/09 03:21:24;;;;;;;2.40;2.03;;;6.20;94.00;;;;;;5083694;28;20207;-87
2022/11/09 03:23:51;;;;;;;2.43;1.67;;;6.30;94.60;;;;;;5090959;28;20295;-88
2022/11/09 03:26:18;;;;;;;2.17;1.70;;;6.40;94.70;;;;;;5089074;28;20305;-88
2022/11/09 03:28:46;;;;;;;2.07;1.63;;;6.30;93.70;;;;;;5085541;28;20219;-87
2022/11/09 03:31:14;;;;;;;2.20;1.80;;;6.30;93.80;;;;;;5088235;28;20211;-87
2022/11/09 03:33:43;;;;;;;3.13;2.00;;;6.10;94.40;;;;;;5091948;28;20230;-87
2022/11/09 03:36:10;;;;;;;1.70;1.60;;;6.10;94.70;;;;;;5089606;28;20201;-87
2022/11/09 03:38:37;;;;;;;2.60;1.90;;;6.20;95.10;;;;;;5087272;28;20200;-87
2022/11/09 03:41:04;;;;;;;2.40;1.90;;;6.30;94.60;;;;;;5090367;28;20200;-87
2022/11/09 03:43:31;;;;;;;3.13;1.83;;;6.20;94.70;;;;;;5090723;28;20200;-88
2022/11/09 03:45:59;;;;;;;4.37;1.70;;;6.30;94.60;;;;;;5089084;28;20554;-87
2022/11/09 03:48:26;;;;;;;3.07;1.70;;;6.10;93.60;;;;;;5091490;28;20207;-87
2022/11/09 03:50:53;;;;;;;1.93;1.43;;;6.20;94.80;;;;;;5089654;28;20197;-87
2022/11/09 03:53:20;;;;;;;2.07;1.73;;;6.20;94.30;;;;;;5085344;28;20228;-88
2022/11/09 03:55:47;;;;;;;3.67;1.73;;;6.20;94.50;;;;;;5089331;28;20656;-87
2022/11/09 03:58:14;;;;;;;2.07;1.80;;;6.30;94.60;;;;;;5083245;28;20198;-88
2022/11/09 04:00:43;;;;;;;3.10;1.93;;;6.30;94.30;;;;;;5083208;28;20307;-88
2022/11/09 04:03:11;;;;;;;1.93;1.80;;;6.20;94.30;;;;;;5085830;28;20308;-87
2022/11/09 04:05:43;;;;;;;2.20;1.60;;;6.30;94.70;;;;;;5082249;28;20204;-87
2022/11/09 04:08:10;;;;;;;2.53;1.90;;;6.20;94.90;;;;;;5081780;28;20304;-87
2022/11/09 04:10:37;;;;;;;2.93;1.50;;;6.30;94.80;;;;;;5081653;28;20284;-88
2022/11/09 04:13:04;;;;;;;4.37;1.80;;;6.20;94.00;;;;;;5087219;28;20216;-88
2022/11/09 04:15:31;;;;;;;2.37;1.53;;;6.10;94.60;;;;;;5082291;28;20365;-87
2022/11/09 04:17:59;;;;;;;1.80;1.57;;;6.20;94.80;;;;;;5084713;28;20528;-87
2022/11/09 04:20:29;;;;;;;3.20;1.57;;;6.20;94.10;;;;;;5082172;28;20200;-87
2022/11/09 04:22:58;;;;;;;1.73;1.63;;;6.10;94.10;;;;;;5088795;28;20306;-88
2022/11/09 04:25:25;;;;;;;1.70;1.40;;;5.90;94.60;;;;;;5090180;28;20287;-87
2022/11/09 04:27:56;;;;;;;1.83;1.60;;;5.80;94.50;;;;;;5090076;28;20203;-87
2022/11/09 04:30:23;;;;;;;2.00;1.50;;;5.80;95.20;;;;;;5089247;28;20214;-87
2022/11/09 04:32:50;;;;;;;1.73;1.63;;;6.00;95.30;;;;;;5086685;28;20220;-87
2022/11/09 04:35:17;;;;;;;2.00;1.60;;;6.10;95.30;;;;;;5081785;28;20211;-87
2022/11/09 04:38:06;;;;;;;1.70;1.60;;;6.00;95.10;;;;;;5084595;28;20292;-87
2022/11/09 04:40:35;;;;;;;2.10;1.77;;;6.20;95.30;;;;;;5084895;28;20200;-87
2022/11/09 04:43:03;;;;;;;3.00;1.50;;;6.30;94.80;;;;;;5085133;28;20219;-87
2022/11/09 04:45:30;;;;;;;3.00;1.70;;;6.40;94.50;;;;;;5088656;28;20561;-87
2022/11/09 04:47:58;;;;;;;2.23;1.70;;;6.20;94.10;;;;;;5087073;28;20203;-87
2022/11/09 04:50:26;;;;;;;2.60;2.17;;;6.20;94.50;;;;;;5089417;28;20196;-88
2022/11/09 04:52:52;;;;;;;4.47;2.73;;;6.10;94.10;;;;;;5085887;28;20234;-87
2022/11/09 04:55:21;;;;;;;2.40;1.80;;;6.10;94.40;;;;;;5088829;28;20645;-88
2022/11/09 04:57:48;;;;;;;1.73;1.57;;;6.20;94.90;;;;;;5088044;28;20203;-87
2022/11/09 05:00:16;;;;;;;1.77;1.60;;;6.30;95.20;;;;;;5088087;28;20660;-88
2022/11/09 05:02:43;;;;;;;1.57;1.40;;;6.30;94.50;;;;;;5088093;28;20298;-87
2022/11/09 05:05:09;;;;;;;1.70;1.60;;;6.40;94.10;;;;;;5076510;28;20207;-88
2022/11/09 05:07:37;;;;;;;1.60;1.50;;;6.40;94.00;;;;;;5077426;28;20201;-88
2022/11/09 05:10:04;;;;;;;2.07;1.83;;;6.40;94.10;;;;;;5082771;28;20283;-88
2022/11/09 05:12:32;;;;;;;2.30;1.80;;;6.40;94.80;;;;;;5076685;28;20220;-87
2022/11/09 05:14:59;;;;;;;2.27;1.93;;;6.40;93.70;;;;;;5087186;28;20672;-87
2022/11/09 05:17:26;;;;;;;1.87;1.60;;;6.30;94.00;;;;;;5081626;28;20201;-87
2022/11/09 05:19:53;;;;;;;3.60;1.77;;;6.40;94.10;;;;;;5077663;28;20362;-87
2022/11/09 05:25:05;;;;;;;3.80;2.10;;;6.20;94.20;;;;;;5084704;28;20195;-87
2022/11/09 05:27:33;;;;;;;2.40;1.90;;;6.10;94.80;;;;;;5079852;28;20200;-87
2022/11/09 05:30:00;;;;;;;2.30;1.80;;;6.20;94.80;;;;;;5080530;28;20289;-87
2022/11/09 05:32:27;;;;;;;2.13;1.90;;;6.20;94.60;;;;;;5089281;28;20880;-87
2022/11/09 05:34:54;;;;;;;2.33;1.60;;;6.20;94.80;;;;;;5079011;28;20346;-87
2022/11/09 05:37:21;;;;;;;3.77;1.40;;;6.20;94.40;;;;;;5082966;28;20202;-87
2022/11/09 05:39:48;;;;;;;2.37;1.87;;;6.00;94.20;;;;;;5084652;28;20196;-87
2022/11/09 05:42:15;;;;;;;1.80;1.40;;;6.10;95.00;;;;;;5088131;28;20640;-88
2022/11/09 05:44:43;;;;;;;1.97;1.80;;;6.10;94.70;;;;;;5088057;28;20394;-87
2022/11/09 05:47:11;;;;;;;2.63;1.50;;;6.20;94.80;;;;;;5085113;28;20207;-87
2022/11/09 05:49:38;;;;;;;1.90;1.60;;;6.20;94.90;;;;;;5088252;28;20684;-88
2022/11/09 05:52:05;;;;;;;1.60;1.50;;;6.20;94.70;;;;;;5087894;28;20277;-87
2022/11/09 05:54:37;;;;;;;1.70;1.60;;;6.20;94.30;;;;;;5087388;28;20226;-88
2022/11/09 05:57:04;;;;;;;2.23;1.43;;;6.20;94.50;;;;;;5092057;28;20211;-87
2022/11/09 05:59:31;;;;;;;1.53;1.37;;;6.10;94.60;;;;;;5090462;28;20712;-87
2022/11/09 06:01:59;;;;;;;1.83;1.53;;;6.00;94.60;;;;;;5089195;28;20637;-88
2022/11/09 06:04:26;;;;;;;2.00;1.67;;;6.00;94.80;;;;;;5082610;28;20208;-88
2022/11/09 06:06:53;;;;;;;2.30;1.87;;;6.00;94.90;;;;;;5087777;28;20232;-88
2022/11/09 06:09:20;;;;;;;3.20;1.93;;;6.10;94.90;;;;;;5078885;28;20636;-88
2022/11/09 06:11:47;;;;;;;2.93;1.70;;;6.30;95.40;;;;;;5088351;28;20283;-88
2022/11/09 06:14:14;;;;;;;1.70;1.60;;;6.50;94.00;;;;;;5089944;28;20316;-88
2022/11/09 06:16:41;;;;;;;2.73;1.60;;;6.30;93.90;;;;;;5088325;28;20259;-88
2022/11/09 06:19:09;;;;;;;3.47;1.90;;;6.20;94.40;;;;;;5086841;28;20665;-88
2022/11/09 06:21:36;;;;;;;2.80;1.63;;;6.20;95.30;;;;;;5086646;28;20234;-88
2022/11/09 06:24:03;;;;;;;3.03;1.50;;;6.40;94.60;;;;;;5089449;28;20291;-88
2022/11/09 06:26:31;;;;;;;12.60;9.90;;;6.40;94.70;;;;;;5084498;28;20198;-89
2022/11/09 06:29:42;;;;;;;4.23;3.60;;;6.60;94.50;;;;;;5088296;28;20240;-89
2022/11/09 06:32:13;;;;;;;3.30;2.23;;;6.70;93.80;;;;;;5084044;28;20232;-88
2022/11/09 06:34:42;;;;;;;2.53;1.93;;;7.00;92.40;;;;;;5089771;28;20280;-88
2022/11/09 06:40:55;;;;;;;2.17;1.85;;;6.90;93.00;;;;;;5095714;28;20231;-89
2022/11/09 06:43:26;;;;;;;3.13;1.80;;;6.80;94.30;;;;;;5088478;28;20291;-89
2022/11/09 06:45:55;;;;;;;4.97;3.03;;;6.90;93.20;;;;;;5093229;28;20720;-89
2022/11/09 06:48:23;;;;;;;2.75;2.13;;;7.00;92.80;;;;;;5083823;28;20201;-89
2022/11/09 06:50:51;;;;;;;4.03;2.63;;;7.20;92.10;;;;;;5085177;28;20295;-89
2022/11/09 06:53:18;;;;;;;3.80;2.35;;;7.40;91.80;;;;;;5088488;28;20224;-89
2022/11/09 06:55:46;;;;;;;5.22;2.08;;;7.70;90.60;;;;;;5086436;28;20287;-90
2022/11/09 06:58:19;;;;;;;5.47;1.90;;;8.00;90.30;;;;;;5087124;28;20606;-89
2022/11/09 07:00:46;;;;;;;3.33;2.28;;;8.30;89.10;;;;;;5084071;28;20309;-90
2022/11/09 07:03:20;;;;;;;8.48;2.40;;;8.50;86.70;;;;;;5086776;28;20612;-91
2022/11/09 07:05:49;;;;;;;6.20;2.10;;;8.70;81.60;;;;;;5092238;28;20286;-90
2022/11/09 07:08:23;;;;;;;4.55;1.95;;;8.90;79.00;;;;;;5085717;28;20283;-90
2022/11/09 07:10:55;;;;;;;6.60;2.03;;;9.10;76.20;;;;;;5084376;28;20247;-91
2022/11/09 07:13:22;;;;;;;2.53;1.83;;;9.20;75.10;;;;;;5086475;28;20228;-91
2022/11/09 07:15:53;;;;;;;5.82;1.90;;;9.30;74.20;;;;;;5076320;28;20205;-91
2022/11/09 07:18:25;;;;;;;2.70;1.88;;;9.40;74.30;;;;;;5087683;28;20207;-90
2022/11/09 07:21:07;;;;;;;3.90;1.60;;;9.40;74.30;;;;;;5090290;28;20332;-91
2022/11/09 07:23:39;;;;;;;3.33;1.77;;;9.40;74.30;;;;;;5080584;28;20297;-93
2022/11/09 07:26:07;;;;;;;6.38;1.85;;;9.40;74.30;;;;;;5090160;28;20672;-91
2022/11/09 07:31:56;;;;;;;2.95;1.75;;;9.50;68.50;;;;;;5081968;28;20246;-91
2022/11/09 07:37:18;;;;;;;4.70;1.95;;;9.40;66.70;;;;;;5079417;28;20204;-87
2022/11/09 07:39:57;;;;;;;2.60;1.70;;;9.40;68.60;;;;;;5092130;28;20292;-90
2022/11/09 07:42:42;;;;;;;5.03;2.10;;;9.30;69.80;;;;;;5090004;28;20279;-88
2022/11/09 07:45:13;;;;;;;5.50;1.98;;;9.30;74.20;;;;;;5090107;28;20279;-88
2022/11/09 07:48:31;;;;;;;3.33;2.10;;;9.30;74.30;;;;;;5093318;28;20604;-88
2022/11/09 07:51:07;;;;;;;4.05;1.90;;;9.30;75.70;;;;;;5087538;28;20197;-88
2022/11/09 07:53:49;;;;;;;3.40;2.28;;;9.50;78.00;;;;;;5089221;28;20232;-88
2022/11/09 07:56:17;;;;;;;4.53;2.55;;;9.50;76.50;;;;;;5087550;28;20218;-88
2022/11/09 07:58:44;;;;;;;3.35;2.00;;;9.60;77.90;;;;;;5086608;28;20239;-88
2022/11/09 08:01:11;;;;;;;6.82;2.20;;;9.70;77.50;;;;;;5081851;28;20629;-90
2022/11/09 08:03:49;;;;;;;4.15;3.13;;;9.90;77.00;;;;;;5080161;28;20197;-87
2022/11/09 08:06:16;;;;;;;6.10;2.40;;;10.00;76.30;;;;;;5086986;28;20283;-89
2022/11/09 08:08:43;;;;;;;3.67;2.10;;;10.00;78.00;;;;;;5088826;28;20711;-90
2022/11/09 08:11:10;;;;;;;4.75;2.35;;;10.00;78.80;;;;;;5091341;28;20639;-90
2022/11/09 08:13:51;;;;;;;5.20;2.30;;;10.10;80.00;;;;;;5086102;28;20239;-91
2022/11/09 08:16:37;;;;;;;4.78;2.50;;;10.20;81.20;;;;;;5089872;28;20196;-90
2022/11/09 08:19:03;;;;;;;4.45;2.30;;;10.30;81.50;;;;;;5092620;28;20275;-89
2022/11/09 08:21:43;;;;;;;6.00;2.30;;;10.50;77.90;;;;;;5092681;28;20185;-89
2022/11/09 08:24:13;;;;;;;7.05;2.35;;;10.80;74.00;;;;;;5089618;28;20287;-89
2022/11/09 08:27:07;;;;;;;4.28;2.00;;;11.00;66.60;;;;;;5088255;28;20192;-89
2022/11/09 08:29:39;;;;;;;3.80;2.15;;;11.30;64.40;;;;;;5087822;28;20216;-89
2022/11/09 08:32:06;;;;;;;4.78;2.20;;;11.50;58.60;;;;;;5085661;28;20249;-89
2022/11/09 08:34:33;;;;;;;3.33;2.22;;;11.70;53.40;;;;;;5082693;28;20212;-88
2022/11/09 08:37:01;;;;;;;3.70;2.42;;;12.00;51.00;;;;;;5086378;28;20316;-89
2022/11/09 08:39:28;;;;;;;4.45;2.13;;;12.20;48.90;;;;;;5086521;28;20212;-89
2022/11/09 08:41:55;;;;;;;3.42;2.20;;;12.40;48.00;;;;;;5082280;28;20196;-89
2022/11/09 08:44:39;;;;;;;3.92;2.40;;;12.60;45.20;;;;;;5081672;28;20204;-91
2022/11/09 08:47:31;;;;;;;4.20;2.40;;;12.80;49.30;;;;;;5086677;28;20640;-91
2022/11/09 08:50:14;;;;;;;4.57;1.80;;;13.00;44.10;;;;;;5087255;28;20199;-89
2022/11/09 08:52:52;;;;;;;5.95;2.28;;;13.50;38.10;;;;;;5086653;28;20188;-90
2022/11/09 08:55:19;;;;;;;3.70;2.17;;;13.70;37.70;;;;;;5088214;28;20220;-87
2022/11/09 08:57:49;;;;;;;3.63;2.20;;;13.70;34.80;;;;;;5084818;28;20298;-88
2022/11/09 09:00:18;;;;;;;3.63;1.80;;;13.60;35.10;;;;;;5081386;28;20240;-88
2022/11/09 09:02:55;;;;;;;3.78;1.77;;;13.60;35.60;;;;;;5088097;28;20207;-89
2022/11/09 09:05:31;;;;;;;2.55;1.75;;;13.40;35.60;;;;;;5091728;28;20196;-89
2022/11/09 09:07:59;;;;;;;2.22;1.80;;;13.30;37.80;;;;;;5079692;28;20207;-88
2022/11/09 09:10:34;;;;;;;2.20;1.70;;;13.20;40.80;;;;;;5077671;28;20201;-88
2022/11/09 09:13:01;;;;;;;3.13;1.85;;;13.20;40.90;;;;;;5087939;28;20200;-89
2022/11/09 09:15:31;;;;;;;4.75;2.95;;;13.10;42.90;;;;;;5088788;28;20656;-91
2022/11/09 09:17:59;;;;;;;2.90;2.05;;;12.90;41.40;;;;;;5080832;28;20208;-90
2022/11/09 09:20:26;;;;;;;4.35;2.10;;;12.90;42.40;;;;;;5078700;28;20198;-89
2022/11/09 09:23:01;;;;;;;2.95;1.90;;;12.90;42.00;;;;;;5083656;28;20521;-88
2022/11/09 09:25:31;;;;;;;2.40;1.90;;;13.00;41.60;;;;;;5087346;28;20707;-88
2022/11/09 09:27:58;;;;;;;2.92;1.92;;;13.00;43.20;;;;;;5088601;28;20189;-88
2022/11/09 09:30:25;;;;;;;5.25;2.10;;;13.10;40.90;;;;;;5088975;28;20204;-87
2022/11/09 09:33:20;;;;;;;3.92;1.95;;;13.20;41.50;;;;;;5089097;28;20242;-87
2022/11/09 09:35:56;;;;;;;4.47;1.95;;;13.40;41.90;;;;;;5081015;28;20197;-88
2022/11/09 09:38:25;;;;;;;3.88;1.95;;;13.50;40.40;;;;;;5092178;28;20187;-89
2022/11/09 09:41:03;;;;;;;4.95;2.30;;;13.70;40.90;;;;;;5085883;28;20193;-88
2022/11/09 09:46:58;;;;;;;2.58;1.90;;;14.10;41.50;;;;;;5084740;28;20187;-87
2022/11/09 09:49:30;;;;;;;4.63;1.70;;;14.20;37.10;;;;;;5084944;28;20663;-87
2022/11/09 09:52:18;;;;;;;2.28;1.60;;;14.20;36.40;;;;;;5083301;28;20239;-90
2022/11/09 09:54:53;;;;;;;1.50;1.40;;;14.40;36.40;;;;;;5085164;28;20228;-88
2022/11/09 09:57:27;;;;;;;1.35;1.10;;;14.40;35.10;;;;;;5083524;28;20211;-89
2022/11/09 10:00:00;;;;;;;3.70;1.60;;;14.40;35.10;;;;;;5086553;28;20298;-88
2022/11/09 10:02:36;;;;;;;1.70;1.55;;;14.40;36.00;;;;;;5086340;28;20228;-87
2022/11/09 10:05:49;;;;;;;2.35;1.45;;;14.40;37.10;;;;;;5088214;28;20679;-88
2022/11/09 10:08:45;;;;;;;1.80;1.70;;;14.50;37.40;;;;;;5083424;28;20227;-88
2022/11/09 10:11:23;;;;;;;5.45;1.88;;;14.70;36.70;;;;;;5090118;28;20258;-91
2022/11/09 10:14:17;;;;;;;1.77;1.60;;;14.90;36.30;;;;;;5084398;28;20238;-87
2022/11/09 10:20:45;;;;;;;2.20;1.50;;;15.50;33.30;;;;;;5093370;28;20172;-86
2022/11/09 10:26:49;;;;;;;2.53;1.73;;;15.70;32.30;;;;;;5092884;28;20176;-88
2022/11/09 10:29:23;;;;;;;4.57;1.77;;;15.70;32.90;;;;;;5080244;28;20192;-88
2022/11/09 10:31:52;;;;;;;1.65;1.50;;;15.60;32.60;;;;;;5074336;28;20193;-87
2022/11/09 10:34:21;;;;;;;2.58;1.90;;;15.60;33.50;;;;;;5083201;28;20258;-89
2022/11/09 10:36:59;;;;;;;1.52;1.40;;;15.60;33.90;;;;;;5086955;28;20625;-87
2022/11/09 10:39:33;;;;;;;3.60;1.50;;;15.60;33.30;;;;;;5083917;28;20195;-86
2022/11/09 10:42:01;;;;;;;1.85;1.35;;;15.60;32.20;;;;;;5089096;28;20189;-85
2022/11/09 10:44:31;;;;;;;2.58;1.50;;;15.30;31.80;;;;;;5090362;28;20192;-90
2022/11/09 10:47:07;;;;;;;1.70;1.60;;;15.20;32.90;;;;;;5094301;28;20284;-87
2022/11/09 10:50:05;;;;;;;3.63;1.35;;;15.30;32.80;;;;;;5092594;28;20275;-88
2022/11/09 10:52:49;;;;;;;3.30;1.40;;;15.30;31.60;;;;;;5091614;28;20215;-87
2022/11/09 10:55:24;;;;;;;2.85;1.50;;;14.90;32.50;;;;;;5091597;28;20315;-89
2022/11/09 10:57:57;;;;;;;2.55;1.33;;;15.10;33.00;;;;;;5090210;28;20254;-89
2022/11/09 11:00:26;;;;;;;2.88;1.63;;;15.30;31.40;;;;;;5089620;28;20197;-89
2022/11/09 11:03:15;;;;;;;2.90;1.60;;;15.50;30.80;;;;;;5092924;28;20220;-89
2022/11/09 11:05:42;;;;;;;1.70;1.45;;;15.80;28.50;;;;;;5090739;28;20664;-88
2022/11/09 11:08:30;;;;;;;3.85;1.80;;;15.70;28.40;;;;;;5089895;28;20413;-89
2022/11/09 11:11:24;;;;;;;1.98;1.42;;;15.70;28.40;;;;;;5088754;28;20288;-88
2022/11/09 11:14:14;;;;;;;1.65;1.50;;;15.80;28.50;;;;;;5092639;28;20301;-88
2022/11/09 11:16:42;;;;;;;1.60;1.25;;;15.90;28.60;;;;;;5089963;28;20299;-87
2022/11/09 11:19:33;;;;;;;1.90;1.38;;;15.90;28.60;;;;;;5091858;28;20683;-88
2022/11/09 11:25:40;;;;;;;3.00;1.40;;;16.20;28.90;;;;;;5093727;28;20176;-88
2022/11/09 11:29:01;;;;;;;3.72;1.65;;;16.30;29.00;;;;;;5094513;28;20279;-88
2022/11/09 11:31:33;;;;;;;2.13;1.52;;;16.10;28.80;;;;;;5097510;28;20199;-88
2022/11/09 11:34:02;;;;;;;3.33;1.92;;;16.20;28.90;;;;;;5089705;28;20216;-88
2022/11/09 11:36:44;;;;;;;1.85;1.50;;;16.30;29.00;;;;;;5089329;28;20276;-88
2022/11/09 11:39:21;;;;;;;1.65;1.38;;;16.50;31.10;;;;;;5089498;28;20616;-88
2022/11/09 11:42:00;;;;;;;3.40;1.30;;;16.60;29.20;;;;;;5087014;28;20193;-88
2022/11/09 11:45:07;;;;;;;1.75;1.45;;;16.50;29.10;;;;;;5089754;28;20247;-88
2022/11/09 11:47:45;;;;;;;2.53;1.40;;;16.40;29.00;;;;;;5079528;28;20295;-88
2022/11/09 11:50:38;;;;;;;2.92;1.48;;;16.40;29.00;;;;;;5088537;28;20674;-88
2022/11/09 11:53:19;;;;;;;1.85;1.20;;;16.50;29.10;;;;;;5006809;28;20227;-87
2022/11/09 11:56:08;;;;;;;1.88;1.40;;;16.70;29.30;;;;;;5009753;28;20582;-88
2022/11/09 12:02:20;;;;;;;1.23;1.13;;;17.10;29.10;;;;;;5011079;28;20225;-88
2022/11/09 12:05:25;;;;;;;5.47;1.60;;;17.20;28.60;;;;;;5012326;28;20230;-88
2022/11/09 12:07:59;;;;;;;2.35;1.60;;;17.20;28.50;;;;;;5006776;28;20218;-88
2022/11/09 12:10:45;;;;;;;2.40;1.55;;;17.10;27.90;;;;;;5011693;28;20211;-87
2022/11/09 12:14:07;;;;;;;3.13;1.30;;;16.90;28.00;;;;;;5012268;28;20642;-88
2022/11/09 12:16:44;;;;;;;3.15;1.48;;;16.80;29.10;;;;;;5011373;28;20209;-86
2022/11/09 12:19:52;;;;;;;2.83;1.50;;;16.90;29.50;;;;;;5007793;28;20213;-88
2022/11/09 12:22:32;;;;;;;2.08;1.40;;;16.90;29.50;;;;;;5006444;28;20726;-89
2022/11/09 12:25:05;;;;;;;2.22;1.38;;;17.10;29.60;;;;;;5008798;28;20679;-88
2022/11/09 12:27:46;;;;;;;2.20;1.63;;;17.10;28.00;;;;;;5004796;28;20358;-88
2022/11/09 12:30:16;;;;;;;1.92;1.50;;;17.10;30.30;;;;;;5044805;28;20203;-87
2022/11/09 12:33:22;;;;;;;2.58;1.20;;;17.10;27.70;;;;;;5085581;28;20258;-88
2022/11/09 12:35:53;;;;;;;2.65;1.40;;;17.30;28.40;;;;;;5091287;28;20525;-88
2022/11/09 12:38:29;;;;;;;2.20;1.42;;;17.20;30.80;;;;;;5087550;28;20265;-88
2022/11/09 12:41:01;;;;;;;1.75;1.60;;;17.20;29.70;;;;;;5088293;28;20235;-89
2022/11/09 12:43:49;;;;;;;2.35;1.45;;;17.10;29.60;;;;;;5087543;28;20671;-88
2022/11/09 12:46:55;;;;;;;2.05;1.50;;;17.10;29.60;;;;;;5088891;28;20206;-87
2022/11/09 12:49:39;;;;;;;1.85;1.40;;;17.00;29.60;;;;;;5087295;28;20682;-87
2022/11/09 12:52:43;;;;;;;1.75;1.25;;;16.70;29.30;;;;;;5090931;28;20338;-87
2022/11/09 12:55:18;;;;;;;2.83;1.45;;;16.70;31.00;;;;;;5083081;28;20779;-88
2022/11/09 12:57:47;;;;;;;11.77;1.60;;;16.50;31.90;;;;;;5085358;28;20283;-88
2022/11/09 13:00:50;;;;;;;2.72;1.35;;;16.40;32.10;;;;;;5085185;28;20247;-87
2022/11/09 13:03:28;;;;;;;1.92;1.30;;;16.50;32.80;;;;;;5045350;28;20682;-88
2022/11/09 13:06:17;;;;;;;2.03;1.73;;;16.50;33.80;;;;;;5035877;28;20201;-88
2022/11/09 13:09:07;;;;;;;3.28;1.50;;;16.60;32.80;;;;;;5037136;28;20654;-88
2022/11/09 13:11:41;;;;;;;5.07;1.58;;;16.60;32.40;;;;;;5039582;28;20194;-87
2022/11/09 13:14:34;;;;;;;1.83;1.60;;;16.60;32.50;;;;;;5042778;28;20213;-87
2022/11/09 13:17:22;;;;;;;2.20;1.58;;;16.70;31.60;;;;;;5038567;28;20199;-87
2022/11/09 13:19:51;;;;;;;1.70;1.50;;;16.70;30.70;;;;;;5042210;28;20202;-87
2022/11/09 13:22:55;;;;;;;4.57;1.70;;;16.70;31.30;;;;;;5039754;28;20292;-87
2022/11/09 13:29:10;;;;;;;1.52;1.40;;;16.70;32.80;;;;;;5033663;28;20181;-88
2022/11/09 13:34:59;;;;;;;1.88;1.33;;;16.60;32.00;;;;;;5017405;28;20221;-89
2022/11/09 13:37:48;;;;;;;2.03;1.33;;;16.60;31.70;;;;;;5018262;28;20218;-87
2022/11/09 13:41:07;;;;;;;2.53;1.25;;;16.60;31.70;;;;;;5033618;28;20197;-88
2022/11/09 13:44:13;;;;;;;1.30;1.17;;;16.70;31.50;;;;;;5043758;28;20244;-88
2022/11/09 13:50:16;;;;;;;2.28;1.30;;;16.70;30.00;;;;;;5047484;28;20197;-90
2022/11/09 13:52:50;;;;;;;1.50;1.40;;;16.70;30.60;;;;;;5047753;28;20229;-89
2022/11/09 13:55:35;;;;;;;1.98;1.30;;;16.70;31.00;;;;;;5045275;28;20221;-89
2022/11/09 13:58:14;;;;;;;4.18;1.65;;;16.60;31.50;;;;;;5061937;28;20205;-88
2022/11/09 14:01:01;;;;;;;2.42;1.67;;;16.50;31.90;;;;;;5049020;28;20202;-88
2022/11/09 14:03:31;;;;;;;4.07;1.55;;;16.40;32.50;;;;;;5043776;28;20284;-90
2022/11/09 14:06:33;;;;;;;1.58;1.48;;;16.40;32.70;;;;;;5034711;28;20623;-89